Beale AFB, California
Current Conditions -  °F | °C
As of 4:40 AM on Monday 22 Dec 2014 (Local Time) from KBAB Reporting Station
Haze Haze  
Wind Chill: 52°   Ceiling: 200
Heat Index: 52°   Visibility: 3mi
Dew Point: 52°   Wind: 6mph
Humidity: 100%   Direction: 20°NNE
Pressure: 30.25"   Gusts: NA
Location:  39.11°N, 121.36°W
Report Text: KBAB 221240Z 02005KT 3SM R15/0700FT BR BKN002 11/11 A3025 RMK $
Loading
Personal Weather Stations






























Interactive Weather Map New forecast layout! Learn more

10-Day Weather Forecast

Advertisements
Track Severe Weather on mobile